createdAt,value
2018-03-02T00:00:49.669Z,0.00
2018-03-02T00:01:49.672Z,0.00
2018-03-02T00:02:49.671Z,0.00
2018-03-02T00:03:49.664Z,0.00
2018-03-02T00:04:49.667Z,0.00
2018-03-02T00:05:49.661Z,0.00
2018-03-02T00:06:49.671Z,0.00
2018-03-02T00:07:49.664Z,0.00
2018-03-02T00:08:49.660Z,0.00
2018-03-02T00:09:49.682Z,0.00
2018-03-02T00:10:49.663Z,0.00
2018-03-02T00:11:49.663Z,0.00
2018-03-02T00:12:49.668Z,0.00
2018-03-02T00:13:49.663Z,0.00
2018-03-02T00:14:49.666Z,0.00
2018-03-02T00:15:49.664Z,0.00
2018-03-02T00:16:49.672Z,0.00
2018-03-02T00:17:49.662Z,0.00
2018-03-02T00:18:49.675Z,0.00
2018-03-02T00:19:49.665Z,0.00
2018-03-02T00:20:49.680Z,0.00
2018-03-02T00:21:49.664Z,0.00
2018-03-02T00:22:49.665Z,0.00
2018-03-02T00:23:49.662Z,0.00
2018-03-02T00:24:49.667Z,0.00
2018-03-02T00:25:49.668Z,0.00
2018-03-02T00:26:49.675Z,0.00
2018-03-02T00:27:49.664Z,0.00
2018-03-02T00:28:49.679Z,0.00
2018-03-02T00:29:49.666Z,0.00
2018-03-02T00:30:49.667Z,0.00
2018-03-02T00:31:49.666Z,0.00
2018-03-02T00:32:49.667Z,0.00
2018-03-02T00:33:49.676Z,0.00
2018-03-02T00:34:49.686Z,0.00
2018-03-02T00:35:49.664Z,0.00
2018-03-02T00:36:49.670Z,0.00
2018-03-02T00:37:49.671Z,0.00
2018-03-02T00:38:49.678Z,0.00
2018-03-02T00:39:49.667Z,0.00
2018-03-02T00:40:49.666Z,0.00
2018-03-02T00:41:49.664Z,0.00
2018-03-02T00:42:49.667Z,0.00
2018-03-02T00:43:49.666Z,0.00
2018-03-02T00:44:49.666Z,0.00
2018-03-02T00:45:49.668Z,0.00
2018-03-02T00:46:49.667Z,0.00
2018-03-02T00:47:49.678Z,0.00
2018-03-02T00:48:49.678Z,0.00
2018-03-02T00:49:49.673Z,0.00
2018-03-02T00:50:49.666Z,0.00
2018-03-02T00:51:49.673Z,0.00
2018-03-02T00:52:49.670Z,0.00
2018-03-02T00:53:49.667Z,0.00
2018-03-02T00:54:49.674Z,0.00
2018-03-02T00:55:49.666Z,0.00
2018-03-02T00:56:49.668Z,0.00
2018-03-02T00:57:49.670Z,0.00
2018-03-02T00:58:49.693Z,0.00
2018-03-02T00:59:49.690Z,0.00
2018-03-02T01:00:49.674Z,0.00
2018-03-02T01:01:49.672Z,0.00
2018-03-02T01:02:49.680Z,0.00
2018-03-02T01:03:49.668Z,0.00
2018-03-02T01:04:49.668Z,0.00
2018-03-02T01:05:49.668Z,0.00
2018-03-02T01:06:49.678Z,0.00
2018-03-02T01:07:49.668Z,0.00
2018-03-02T01:08:49.672Z,0.00
2018-03-02T01:09:49.681Z,0.00
2018-03-02T01:10:49.666Z,0.00
2018-03-02T01:11:49.665Z,0.00
2018-03-02T01:12:49.667Z,0.00
2018-03-02T01:13:49.671Z,0.00
2018-03-02T01:14:49.664Z,0.00
2018-03-02T01:15:49.678Z,0.00
2018-03-02T01:16:49.673Z,0.00
2018-03-02T01:17:49.682Z,0.00
2018-03-02T01:18:49.666Z,0.00
2018-03-02T01:19:49.665Z,0.00
2018-03-02T01:20:49.668Z,0.00
2018-03-02T01:21:49.675Z,0.00
2018-03-02T01:22:49.665Z,0.00
2018-03-02T01:23:49.670Z,0.00
2018-03-02T01:24:49.666Z,0.00
2018-03-02T01:25:49.664Z,0.00
2018-03-02T01:26:49.680Z,0.00
2018-03-02T01:27:49.661Z,0.00
2018-03-02T01:28:49.664Z,0.00
2018-03-02T01:29:49.673Z,0.00
2018-03-02T01:30:49.668Z,0.00
2018-03-02T01:31:49.674Z,0.00
2018-03-02T01:32:49.666Z,0.00
2018-03-02T01:33:49.663Z,0.00
2018-03-02T01:34:49.672Z,0.00
2018-03-02T01:35:49.666Z,0.00
2018-03-02T01:36:49.672Z,0.00
2018-03-02T01:37:49.662Z,0.00
2018-03-02T01:38:49.671Z,0.00
2018-03-02T01:39:49.661Z,0.00
2018-03-02T01:40:49.660Z,0.00
2018-03-02T01:41:49.663Z,0.00
2018-03-02T01:42:49.661Z,0.00
2018-03-02T01:43:49.661Z,0.00
2018-03-02T01:44:49.660Z,0.00
2018-03-02T01:45:49.660Z,0.00
2018-03-02T01:46:49.666Z,0.00
2018-03-02T01:47:49.657Z,0.00
2018-03-02T01:48:49.662Z,0.00
2018-03-02T01:49:49.659Z,0.00
2018-03-02T01:50:49.659Z,0.00
2018-03-02T01:51:49.664Z,0.00
2018-03-02T01:52:49.655Z,0.00
2018-03-02T01:53:49.685Z,0.00
2018-03-02T01:54:49.659Z,0.00
2018-03-02T01:55:49.656Z,0.00
2018-03-02T01:56:49.663Z,0.00
2018-03-02T01:57:49.654Z,0.00
2018-03-02T01:58:49.656Z,0.00
2018-03-02T01:59:49.658Z,0.00
2018-03-02T02:00:49.652Z,0.00
2018-03-02T02:01:49.657Z,0.00
2018-03-02T02:02:49.668Z,0.00
2018-03-02T02:03:49.657Z,0.00
2018-03-02T02:04:49.661Z,0.00
2018-03-02T02:05:49.657Z,0.00
2018-03-02T02:06:49.671Z,0.00
2018-03-02T02:07:49.651Z,0.00
2018-03-02T02:08:49.650Z,0.00
2018-03-02T02:09:49.670Z,0.00
2018-03-02T02:10:49.653Z,0.00
2018-03-02T02:11:49.660Z,0.00
2018-03-02T02:12:49.655Z,0.00
2018-03-02T02:13:49.649Z,0.00
2018-03-02T02:14:49.651Z,0.00
2018-03-02T02:15:49.666Z,0.00
2018-03-02T02:16:49.665Z,0.00
2018-03-02T02:17:49.648Z,0.00
2018-03-02T02:18:49.648Z,0.00
2018-03-02T02:19:49.652Z,0.00
2018-03-02T02:20:49.652Z,0.00
2018-03-02T02:21:49.673Z,0.00
2018-03-02T02:22:49.654Z,0.00
2018-03-02T02:23:49.650Z,0.00
2018-03-02T02:24:49.646Z,0.00
2018-03-02T02:25:49.658Z,0.00
2018-03-02T02:26:49.677Z,0.00
2018-03-02T02:27:49.644Z,0.00
2018-03-02T02:28:49.668Z,0.00
2018-03-02T02:29:49.646Z,0.00
2018-03-02T02:30:49.652Z,0.00
2018-03-02T02:31:49.642Z,0.00
2018-03-02T02:32:49.646Z,0.00
2018-03-02T02:33:49.640Z,0.00
2018-03-02T02:34:49.648Z,0.00
2018-03-02T02:35:49.657Z,0.00
2018-03-02T02:36:49.643Z,0.00
2018-03-02T02:37:49.642Z,0.00
2018-03-02T02:38:49.639Z,0.00
2018-03-02T02:39:49.640Z,0.00
2018-03-02T02:40:49.648Z,0.00
2018-03-02T02:41:49.643Z,0.00
2018-03-02T02:42:49.641Z,0.00
2018-03-02T02:43:49.634Z,0.00
2018-03-02T02:44:49.635Z,0.00
2018-03-02T02:45:49.648Z,0.00
2018-03-02T02:46:49.639Z,0.00
2018-03-02T02:47:49.635Z,0.00
2018-03-02T02:48:49.640Z,0.00
2018-03-02T02:49:49.637Z,0.00
2018-03-02T02:50:49.634Z,0.00
2018-03-02T02:51:49.634Z,0.00
2018-03-02T02:52:49.632Z,0.00
2018-03-02T02:53:49.632Z,0.00
2018-03-02T02:54:49.630Z,0.00
2018-03-02T02:55:49.631Z,0.00
2018-03-02T02:56:49.630Z,0.00
2018-03-02T02:57:49.642Z,0.00
2018-03-02T02:58:49.633Z,0.00
2018-03-02T02:59:49.627Z,0.00
2018-03-02T03:00:49.626Z,0.00
2018-03-02T03:01:49.627Z,0.00
2018-03-02T03:02:49.630Z,0.00
2018-03-02T03:03:49.648Z,0.00
2018-03-02T03:04:49.625Z,0.00
2018-03-02T03:05:49.639Z,0.00
2018-03-02T03:06:49.622Z,0.00
2018-03-02T03:07:49.626Z,0.00
2018-03-02T03:08:49.620Z,0.00
2018-03-02T03:09:49.620Z,0.00
2018-03-02T03:10:49.623Z,0.00
2018-03-02T03:11:49.629Z,0.00
2018-03-02T03:12:49.620Z,0.00
2018-03-02T03:13:49.621Z,0.00
2018-03-02T03:14:49.617Z,0.00
2018-03-02T03:15:49.614Z,0.00
2018-03-02T03:16:49.622Z,0.00
2018-03-02T03:17:49.619Z,0.00
2018-03-02T03:18:49.627Z,0.00
2018-03-02T03:19:49.619Z,0.00
2018-03-02T03:20:49.613Z,0.00
2018-03-02T03:21:49.611Z,0.00
2018-03-02T03:22:49.615Z,0.00
2018-03-02T03:23:49.610Z,0.00
2018-03-02T03:24:49.627Z,0.00
2018-03-02T03:25:49.625Z,0.00
2018-03-02T03:26:49.649Z,0.00
2018-03-02T03:27:49.605Z,0.00
2018-03-02T03:28:49.606Z,0.00
2018-03-02T03:29:49.607Z,0.00
2018-03-02T03:30:49.610Z,0.00
2018-03-02T03:31:49.607Z,0.00
2018-03-02T03:32:49.606Z,0.00
2018-03-02T03:33:49.609Z,0.00
2018-03-02T03:34:49.605Z,0.00
2018-03-02T03:35:49.606Z,0.00
2018-03-02T03:36:49.605Z,0.00
2018-03-02T03:37:49.604Z,0.00
2018-03-02T03:38:49.602Z,0.00
2018-03-02T03:39:49.605Z,0.00
2018-03-02T03:40:49.604Z,0.00
2018-03-02T03:41:49.604Z,0.00
2018-03-02T03:42:49.601Z,0.00
2018-03-02T03:43:49.613Z,0.00
2018-03-02T03:44:49.601Z,0.00
2018-03-02T03:45:49.604Z,0.00
2018-03-02T03:46:49.625Z,0.00
2018-03-02T03:47:49.600Z,0.00
2018-03-02T03:48:49.600Z,0.00
2018-03-02T03:49:49.639Z,0.00
2018-03-02T03:50:49.599Z,0.00
2018-03-02T03:51:49.603Z,0.00
2018-03-02T03:52:49.592Z,0.00
2018-03-02T03:53:49.593Z,0.00
2018-03-02T03:54:49.596Z,0.00
2018-03-02T03:55:49.595Z,0.00
2018-03-02T03:56:49.592Z,0.00
2018-03-02T03:57:49.593Z,0.00
2018-03-02T03:58:49.611Z,0.00
2018-03-02T03:59:49.607Z,0.00
2018-03-02T04:00:49.599Z,0.00
2018-03-02T04:01:49.590Z,0.00
2018-03-02T04:02:49.598Z,0.00
2018-03-02T04:03:49.586Z,0.00
2018-03-02T04:04:49.590Z,0.00
2018-03-02T04:05:49.593Z,0.00
2018-03-02T04:06:49.588Z,0.00
2018-03-02T04:07:49.595Z,0.00
2018-03-02T04:08:49.588Z,0.00
2018-03-02T04:09:49.586Z,0.00
2018-03-02T04:10:49.605Z,0.00
2018-03-02T04:11:49.587Z,0.00
2018-03-02T04:12:49.591Z,0.00
2018-03-02T04:13:49.584Z,0.00
2018-03-02T04:14:49.584Z,0.00
2018-03-02T04:15:49.587Z,0.00
2018-03-02T04:16:49.592Z,0.00
2018-03-02T04:17:49.582Z,0.00
2018-03-02T04:18:49.584Z,0.00
2018-03-02T04:19:49.582Z,0.00
2018-03-02T04:20:49.590Z,0.00
2018-03-02T04:21:49.600Z,0.00
2018-03-02T04:22:49.580Z,0.00
2018-03-02T04:23:49.625Z,0.00
2018-03-02T04:24:49.586Z,0.00
2018-03-02T04:25:49.588Z,0.00
2018-03-02T04:26:49.593Z,0.00
2018-03-02T04:27:49.578Z,0.00
2018-03-02T04:28:49.609Z,0.00
2018-03-02T04:29:49.582Z,0.00
2018-03-02T04:30:49.590Z,0.00
2018-03-02T04:31:49.579Z,0.00
2018-03-02T04:32:49.589Z,0.00
2018-03-02T04:33:49.581Z,0.00
2018-03-02T04:34:49.594Z,0.00
2018-03-02T04:35:49.573Z,0.00
2018-03-02T04:36:49.589Z,0.00
2018-03-02T04:37:49.573Z,0.00
2018-03-02T04:38:49.575Z,0.00
2018-03-02T04:39:49.672Z,0.00
2018-03-02T04:40:49.573Z,0.00
2018-03-02T04:41:49.577Z,0.00
2018-03-02T04:42:49.571Z,0.00
2018-03-02T04:43:49.572Z,0.00
2018-03-02T04:44:49.573Z,0.00
2018-03-02T04:45:49.570Z,0.00
2018-03-02T04:46:49.571Z,0.00
2018-03-02T04:47:49.570Z,0.00
2018-03-02T04:48:49.572Z,0.00
2018-03-02T04:49:49.566Z,0.00
2018-03-02T04:50:49.564Z,0.00
2018-03-02T04:51:49.566Z,0.00
2018-03-02T04:52:49.564Z,0.00
2018-03-02T04:53:49.563Z,0.00
2018-03-02T04:54:49.564Z,0.00
2018-03-02T04:55:49.576Z,0.00
2018-03-02T04:56:49.563Z,0.00
2018-03-02T04:57:49.559Z,0.00
2018-03-02T04:58:49.559Z,0.00
2018-03-02T04:59:49.560Z,0.00
2018-03-02T05:00:49.558Z,0.00
2018-03-02T05:01:49.558Z,0.00
2018-03-02T05:02:49.571Z,0.00
2018-03-02T05:03:49.566Z,0.00
2018-03-02T05:04:49.556Z,0.00
2018-03-02T05:05:49.563Z,0.00
2018-03-02T05:06:49.558Z,0.00
2018-03-02T05:07:49.554Z,0.00
2018-03-02T05:08:49.552Z,0.00
2018-03-02T05:09:49.550Z,0.00
2018-03-02T05:10:49.564Z,0.00
2018-03-02T05:11:49.547Z,0.00
2018-03-02T05:12:49.553Z,0.00
2018-03-02T05:13:49.551Z,0.00
2018-03-02T05:14:49.588Z,0.00
2018-03-02T05:15:49.548Z,0.00
2018-03-02T05:16:49.610Z,0.00
2018-03-02T05:17:49.551Z,0.00
2018-03-02T05:18:49.546Z,0.00
2018-03-02T05:19:49.546Z,0.00
2018-03-02T05:20:49.545Z,0.00
2018-03-02T05:21:49.544Z,0.00
2018-03-02T05:22:49.543Z,0.00
2018-03-02T05:23:49.547Z,0.00
2018-03-02T05:24:49.541Z,0.00
2018-03-02T05:25:49.557Z,0.00
2018-03-02T05:26:49.545Z,0.00
2018-03-02T05:27:49.543Z,0.00
2018-03-02T05:28:49.540Z,0.00
2018-03-02T05:29:49.541Z,0.00
2018-03-02T05:30:49.539Z,0.00
2018-03-02T05:31:49.535Z,0.00
2018-03-02T05:32:49.542Z,0.00
2018-03-02T05:33:49.540Z,0.00
2018-03-02T05:34:49.540Z,0.00
2018-03-02T05:35:49.535Z,0.00
2018-03-02T05:36:49.534Z,0.00
2018-03-02T05:37:49.537Z,0.00
2018-03-02T05:38:49.531Z,0.00
2018-03-02T05:39:49.530Z,0.00
2018-03-02T05:40:49.539Z,0.00
2018-03-02T05:41:49.530Z,0.00
2018-03-02T05:42:49.543Z,0.00
2018-03-02T05:43:50.086Z,0.00
2018-03-02T05:44:49.540Z,0.00
2018-03-02T05:45:49.530Z,0.00
2018-03-02T05:46:49.540Z,0.00
2018-03-02T05:47:49.527Z,0.00
2018-03-02T05:48:49.528Z,0.00
2018-03-02T05:49:49.529Z,0.00
2018-03-02T05:50:49.525Z,0.00
2018-03-02T05:51:49.524Z,0.00
2018-03-02T05:52:49.533Z,0.00
2018-03-02T05:53:49.520Z,0.00
2018-03-02T05:54:49.520Z,0.00
2018-03-02T05:55:49.529Z,5.63
2018-03-02T05:56:49.527Z,5.63
2018-03-02T05:57:49.521Z,5.63
2018-03-02T05:58:49.533Z,5.63
2018-03-02T05:59:49.517Z,5.63
2018-03-02T06:00:49.518Z,5.63
2018-03-02T06:01:49.520Z,5.63
2018-03-02T06:02:49.515Z,5.63
2018-03-02T06:03:49.518Z,5.63
2018-03-02T06:04:49.540Z,11.25
2018-03-02T06:05:49.511Z,11.25
2018-03-02T06:06:49.514Z,11.25
2018-03-02T06:07:49.510Z,11.25
2018-03-02T06:08:49.515Z,11.25
2018-03-02T06:09:49.509Z,16.88
2018-03-02T06:10:49.510Z,16.88
2018-03-02T06:11:49.540Z,16.88
2018-03-02T06:12:49.506Z,16.88
2018-03-02T06:13:49.506Z,16.88
2018-03-02T06:14:49.503Z,22.50
2018-03-02T06:15:49.503Z,22.50
2018-03-02T06:16:49.502Z,22.50
2018-03-02T06:17:49.508Z,22.50
2018-03-02T06:18:49.503Z,28.13
2018-03-02T06:19:49.499Z,28.13
2018-03-02T06:20:49.501Z,28.13
2018-03-02T06:21:49.498Z,33.75
2018-03-02T06:22:49.501Z,33.75
2018-03-02T06:23:49.504Z,33.75
2018-03-02T06:24:49.496Z,33.75
2018-03-02T06:25:49.498Z,39.38
2018-03-02T06:26:49.494Z,39.38
2018-03-02T06:27:49.492Z,39.38
2018-03-02T06:28:49.494Z,45.00
2018-03-02T06:29:49.494Z,45.00
2018-03-02T06:30:49.507Z,45.00
2018-03-02T06:31:49.489Z,50.63
2018-03-02T06:32:49.494Z,50.63
2018-03-02T06:33:49.498Z,56.25
2018-03-02T06:34:49.498Z,56.25
2018-03-02T06:35:49.487Z,56.25
2018-03-02T06:36:49.488Z,61.88
2018-03-02T06:37:49.487Z,61.88
2018-03-02T06:38:49.501Z,61.88
2018-03-02T06:39:49.485Z,61.88
2018-03-02T06:40:49.482Z,67.50
2018-03-02T06:41:49.522Z,67.50
2018-03-02T06:42:49.484Z,67.50
2018-03-02T06:43:49.481Z,73.13
2018-03-02T06:44:49.489Z,73.13
2018-03-02T06:45:49.481Z,73.13
2018-03-02T06:46:49.485Z,78.75
2018-03-02T06:47:49.480Z,78.75
2018-03-02T06:48:49.479Z,84.38
2018-03-02T06:49:49.478Z,84.38
2018-03-02T06:50:49.478Z,84.38
2018-03-02T06:51:49.482Z,90.00
2018-03-02T06:52:49.480Z,90.00
2018-03-02T06:53:49.475Z,90.00
2018-03-02T06:54:49.479Z,95.63
2018-03-02T06:55:49.479Z,95.63
2018-03-02T06:56:49.475Z,95.63
2018-03-02T06:57:49.488Z,95.63
2018-03-02T06:58:49.473Z,95.63
2018-03-02T06:59:49.477Z,95.63
2018-03-02T07:00:49.471Z,101.25
2018-03-02T07:01:49.472Z,101.25
2018-03-02T07:02:49.470Z,101.25
2018-03-02T07:03:49.476Z,106.88
2018-03-02T07:04:49.478Z,106.88
2018-03-02T07:05:49.469Z,106.88
2018-03-02T07:06:49.468Z,106.88
2018-03-02T07:07:49.477Z,112.50
2018-03-02T07:08:49.467Z,112.50
2018-03-02T07:09:49.466Z,112.50
2018-03-02T07:10:49.469Z,118.13
2018-03-02T07:11:49.487Z,123.75
2018-03-02T07:12:49.465Z,123.75
2018-03-02T07:13:49.466Z,129.38
2018-03-02T07:14:49.470Z,129.38
2018-03-02T07:15:49.474Z,135.00
2018-03-02T07:16:49.471Z,140.63
2018-03-02T07:17:49.464Z,135.00
2018-03-02T07:18:49.465Z,135.00
2018-03-02T07:19:49.466Z,140.63
2018-03-02T07:20:49.463Z,140.63
2018-03-02T07:21:49.463Z,140.63
2018-03-02T07:22:49.483Z,140.63
2018-03-02T07:23:49.467Z,146.25
2018-03-02T07:24:49.464Z,146.25
2018-03-02T07:25:49.470Z,146.25
2018-03-02T07:26:49.462Z,151.88
2018-03-02T07:27:49.472Z,151.88
2018-03-02T07:28:49.467Z,157.50
2018-03-02T07:29:49.463Z,157.50
2018-03-02T07:30:49.484Z,163.13
2018-03-02T07:31:49.459Z,157.50
2018-03-02T07:32:49.467Z,163.13
2018-03-02T07:33:49.484Z,163.13
2018-03-02T07:34:49.477Z,168.75
2018-03-02T07:35:49.463Z,168.75
2018-03-02T07:36:49.464Z,168.75
2018-03-02T07:37:49.459Z,174.38
2018-03-02T07:38:49.467Z,180.00
2018-03-02T07:39:49.461Z,180.00
2018-03-02T07:40:49.459Z,185.63
2018-03-02T07:41:49.461Z,185.63
2018-03-02T07:42:49.494Z,191.25
2018-03-02T07:43:49.462Z,191.25
2018-03-02T07:44:49.459Z,191.25
2018-03-02T07:45:49.460Z,191.25
2018-03-02T07:46:49.459Z,191.25
2018-03-02T07:47:49.458Z,191.25
2018-03-02T07:48:49.460Z,196.88
2018-03-02T07:49:49.471Z,196.88
2018-03-02T07:50:49.465Z,196.88
2018-03-02T07:51:49.469Z,196.88
2018-03-02T07:52:49.464Z,202.50
2018-03-02T07:53:49.461Z,202.50
2018-03-02T07:54:49.466Z,202.50
2018-03-02T07:55:49.469Z,202.50
2018-03-02T07:56:49.463Z,202.50
2018-03-02T07:57:49.463Z,208.13
2018-03-02T07:58:49.464Z,213.75
2018-03-02T07:59:49.467Z,213.75
2018-03-02T08:00:49.462Z,219.38
2018-03-02T08:01:49.480Z,219.38
2018-03-02T08:02:49.465Z,225.00
2018-03-02T08:03:49.466Z,225.00
2018-03-02T08:04:49.468Z,225.00
2018-03-02T08:05:49.466Z,230.63
2018-03-02T08:06:49.465Z,230.63
2018-03-02T08:07:49.466Z,236.25
2018-03-02T08:08:49.467Z,236.25
2018-03-02T08:09:49.470Z,247.50
2018-03-02T08:10:49.511Z,247.50
2018-03-02T08:11:49.471Z,247.50
2018-03-02T08:12:49.468Z,247.50
2018-03-02T08:13:49.472Z,247.50
2018-03-02T08:14:49.484Z,247.50
2018-03-02T08:15:49.508Z,253.13
2018-03-02T08:16:49.473Z,258.75
2018-03-02T08:17:49.475Z,258.75
2018-03-02T08:18:49.473Z,253.13
2018-03-02T08:19:49.482Z,258.75
2018-03-02T08:20:49.478Z,264.38
2018-03-02T08:21:49.475Z,264.38
2018-03-02T08:22:49.478Z,270.00
2018-03-02T08:23:49.483Z,275.63
2018-03-02T08:24:49.478Z,286.88
2018-03-02T08:25:49.484Z,286.88
2018-03-02T08:26:49.487Z,286.88
2018-03-02T08:27:49.480Z,281.25
2018-03-02T08:28:49.488Z,281.25
2018-03-02T08:29:49.484Z,286.88
2018-03-02T08:30:50.100Z,286.88
2018-03-02T08:31:49.484Z,281.25
2018-03-02T08:32:49.488Z,281.25
2018-03-02T08:33:49.490Z,286.88
2018-03-02T08:34:49.488Z,292.50
2018-03-02T08:35:49.489Z,292.50
2018-03-02T08:36:49.488Z,298.13
2018-03-02T08:37:49.490Z,303.75
2018-03-02T08:38:49.506Z,309.38
2018-03-02T08:39:49.517Z,315.00
2018-03-02T08:40:49.493Z,320.63
2018-03-02T08:41:49.500Z,331.88
2018-03-02T08:42:49.502Z,343.13
2018-03-02T08:43:49.503Z,348.75
2018-03-02T08:44:49.506Z,360.00
2018-03-02T08:45:49.502Z,360.00
2018-03-02T08:46:49.508Z,371.25
2018-03-02T08:47:49.525Z,371.25
2018-03-02T08:48:49.504Z,371.25
2018-03-02T08:49:49.517Z,365.63
2018-03-02T08:50:49.510Z,365.63
2018-03-02T08:51:49.510Z,371.25
2018-03-02T08:52:49.508Z,371.25
2018-03-02T08:53:49.512Z,371.25
2018-03-02T08:54:49.518Z,376.88
2018-03-02T08:55:49.563Z,388.13
2018-03-02T08:56:49.518Z,405.00
2018-03-02T08:57:49.531Z,405.00
2018-03-02T08:58:49.528Z,421.88
2018-03-02T08:59:49.529Z,427.50
2018-03-02T09:00:49.525Z,438.75
2018-03-02T09:01:49.543Z,427.50
2018-03-02T09:02:49.553Z,421.88
2018-03-02T09:03:49.534Z,427.50
2018-03-02T09:04:49.533Z,433.13
2018-03-02T09:05:49.536Z,444.38
2018-03-02T09:06:49.538Z,450.00
2018-03-02T09:07:49.536Z,444.38
2018-03-02T09:08:49.541Z,450.00
2018-03-02T09:09:49.546Z,450.00
2018-03-02T09:10:49.553Z,444.38
2018-03-02T09:11:49.548Z,450.00
2018-03-02T09:12:49.551Z,455.63
2018-03-02T09:13:49.548Z,450.00
2018-03-02T09:14:49.551Z,455.63
2018-03-02T09:15:49.553Z,455.63
2018-03-02T09:16:49.554Z,461.25
2018-03-02T09:17:49.559Z,466.88
2018-03-02T09:18:49.573Z,478.13
2018-03-02T09:19:49.560Z,483.75
2018-03-02T09:20:49.563Z,483.75
2018-03-02T09:21:49.565Z,495.00
2018-03-02T09:22:49.571Z,495.00
2018-03-02T09:23:49.620Z,489.38
2018-03-02T09:24:49.593Z,495.00
2018-03-02T09:25:49.580Z,472.50
2018-03-02T09:26:49.582Z,472.50
2018-03-02T09:27:49.582Z,483.75
2018-03-02T09:28:49.599Z,495.00
2018-03-02T09:29:49.584Z,517.50
2018-03-02T09:30:49.592Z,506.25
2018-03-02T09:31:49.604Z,506.25
2018-03-02T09:32:49.619Z,506.25
2018-03-02T09:33:49.597Z,528.75
2018-03-02T09:34:49.602Z,517.50
2018-03-02T09:35:49.600Z,511.88
2018-03-02T09:36:49.605Z,506.25
2018-03-02T09:37:49.607Z,523.13
2018-03-02T09:38:49.610Z,506.25
2018-03-02T09:39:49.634Z,495.00
2018-03-02T09:40:49.619Z,506.25
2018-03-02T09:41:49.619Z,511.88
2018-03-02T09:42:49.630Z,528.75
2018-03-02T09:43:49.627Z,523.13
2018-03-02T09:44:49.630Z,523.13
2018-03-02T09:45:49.655Z,534.38
2018-03-02T09:46:49.637Z,517.50
2018-03-02T09:47:49.639Z,528.75
2018-03-02T09:48:49.640Z,534.38
2018-03-02T09:49:49.650Z,528.75
2018-03-02T09:50:49.647Z,534.38
2018-03-02T09:51:49.655Z,551.25
2018-03-02T09:52:49.710Z,556.88
2018-03-02T09:53:49.660Z,545.63
2018-03-02T09:54:49.696Z,551.25
2018-03-02T09:55:49.661Z,545.63
2018-03-02T09:56:49.665Z,556.88
2018-03-02T09:57:49.690Z,556.88
2018-03-02T09:58:49.675Z,568.13
2018-03-02T09:59:49.674Z,585.00
2018-03-02T10:00:49.678Z,579.38
2018-03-02T10:01:51.635Z,585.00
2018-03-02T10:02:49.689Z,590.63
2018-03-02T10:03:49.688Z,607.50
2018-03-02T10:04:49.691Z,618.75
2018-03-02T10:05:49.718Z,613.13
2018-03-02T10:06:49.713Z,630.00
2018-03-02T10:07:49.704Z,613.13
2018-03-02T10:08:49.716Z,624.38
2018-03-02T10:09:49.710Z,641.25
2018-03-02T10:10:49.711Z,624.38
2018-03-02T10:11:49.716Z,641.25
2018-03-02T10:12:49.722Z,630.00
2018-03-02T10:13:49.738Z,646.88
2018-03-02T10:14:49.732Z,630.00
2018-03-02T10:15:49.730Z,635.63
2018-03-02T10:16:49.805Z,635.63
2018-03-02T10:17:49.741Z,641.25
2018-03-02T10:18:49.749Z,663.75
2018-03-02T10:19:49.755Z,652.50
2018-03-02T10:20:49.757Z,686.25
2018-03-02T10:21:49.773Z,680.63
2018-03-02T10:22:49.762Z,635.63
2018-03-02T10:23:49.767Z,641.25
2018-03-02T10:24:49.908Z,635.63
2018-03-02T10:25:49.774Z,686.25
2018-03-02T10:26:49.781Z,725.63
2018-03-02T10:27:49.790Z,680.63
2018-03-02T10:28:49.792Z,770.63
2018-03-02T10:29:49.820Z,725.63
2018-03-02T10:30:49.800Z,725.63
2018-03-02T10:31:49.805Z,697.50
2018-03-02T10:32:49.820Z,691.88
2018-03-02T10:33:49.813Z,714.38
2018-03-02T10:34:49.818Z,697.50
2018-03-02T10:35:49.822Z,703.13
2018-03-02T10:36:49.836Z,703.13
2018-03-02T10:37:49.837Z,714.38
2018-03-02T10:38:49.836Z,731.25
2018-03-02T10:39:49.841Z,759.38
2018-03-02T10:40:49.845Z,765.00
2018-03-02T10:41:49.852Z,804.38
2018-03-02T10:42:49.871Z,843.75
2018-03-02T10:43:49.861Z,821.25
2018-03-02T10:44:49.866Z,894.38
2018-03-02T10:45:49.874Z,804.38
2018-03-02T10:46:49.876Z,916.88
2018-03-02T10:47:49.888Z,1181.25
2018-03-02T10:48:49.916Z,961.88
2018-03-02T10:49:49.894Z,888.75
2018-03-02T10:50:49.897Z,855.00
2018-03-02T10:51:49.906Z,849.38
2018-03-02T10:52:49.914Z,888.75
2018-03-02T10:53:49.916Z,1096.88
2018-03-02T10:54:49.933Z,1389.38
2018-03-02T10:55:49.927Z,945.00
2018-03-02T10:56:49.935Z,883.13
2018-03-02T10:57:49.940Z,916.88
2018-03-02T10:58:49.949Z,888.75
2018-03-02T10:59:49.975Z,894.38
2018-03-02T11:00:49.960Z,967.50
2018-03-02T11:01:50.005Z,1085.63
2018-03-02T11:02:49.975Z,967.50
2018-03-02T11:03:49.990Z,990.00
2018-03-02T11:04:49.986Z,1085.63
2018-03-02T11:05:49.993Z,916.88
2018-03-02T11:06:50.001Z,956.25
2018-03-02T11:07:50.006Z,933.75
2018-03-02T11:08:50.016Z,905.63
2018-03-02T11:09:50.025Z,990.00
2018-03-02T11:10:50.029Z,1513.13
2018-03-02T11:11:50.081Z,1029.38
2018-03-02T11:12:50.052Z,1215.00
2018-03-02T11:13:50.055Z,967.50
2018-03-02T11:14:50.058Z,1608.75
2018-03-02T11:15:50.066Z,1597.50
2018-03-02T11:16:50.079Z,1170.00
2018-03-02T11:17:50.087Z,1215.00
2018-03-02T11:18:50.106Z,1406.25
2018-03-02T11:19:50.099Z,1243.13
2018-03-02T11:20:50.109Z,1023.75
2018-03-02T11:21:50.115Z,1051.88
2018-03-02T11:22:50.124Z,1614.38
2018-03-02T11:23:50.133Z,1085.63
2018-03-02T11:24:50.142Z,1130.63
2018-03-02T11:25:50.163Z,973.13
2018-03-02T11:26:50.159Z,1046.25
2018-03-02T11:27:50.166Z,1310.63
2018-03-02T11:28:50.181Z,1198.13
2018-03-02T11:29:50.185Z,1288.13
2018-03-02T11:30:50.197Z,1395.00
2018-03-02T11:31:50.224Z,1704.38
2018-03-02T11:32:50.212Z,1620.00
2018-03-02T11:33:50.225Z,1496.25
2018-03-02T11:34:50.252Z,1226.25
2018-03-02T11:35:50.240Z,1119.38
2018-03-02T11:36:50.261Z,1378.13
2018-03-02T11:37:50.261Z,1507.50
2018-03-02T11:38:50.269Z,1631.25
2018-03-02T11:39:50.279Z,1890.00
2018-03-02T11:40:50.302Z,1361.25
2018-03-02T11:41:50.307Z,1766.25
2018-03-02T11:42:50.320Z,1670.63
2018-03-02T11:43:50.321Z,1681.88
2018-03-02T11:44:50.353Z,1456.88
2018-03-02T11:45:50.343Z,1456.88
2018-03-02T11:46:50.353Z,1411.88
2018-03-02T11:47:50.369Z,1445.63
2018-03-02T11:48:50.373Z,1485.00
2018-03-02T11:49:50.392Z,1423.13
2018-03-02T11:50:50.396Z,1181.25
2018-03-02T11:51:50.414Z,1141.88
2018-03-02T11:52:50.440Z,1186.88
2018-03-02T11:53:50.433Z,1400.63
2018-03-02T11:54:50.453Z,1366.88
2018-03-02T11:55:50.451Z,1445.63
2018-03-02T11:56:50.462Z,1378.13
2018-03-02T11:57:50.475Z,1085.63
2018-03-02T11:58:50.493Z,1327.50
2018-03-02T11:59:50.499Z,1254.38
2018-03-02T12:00:50.507Z,1423.13
2018-03-02T12:01:50.520Z,1445.63
2018-03-02T12:02:50.530Z,1074.38
2018-03-02T12:03:50.539Z,1215.00
2018-03-02T12:04:50.575Z,1130.63
2018-03-02T12:05:50.585Z,1215.00
2018-03-02T12:06:50.607Z,1316.25
2018-03-02T12:07:50.592Z,1243.13
2018-03-02T12:08:50.604Z,1316.25
2018-03-02T12:09:50.611Z,1361.25
2018-03-02T12:10:50.623Z,1350.00
2018-03-02T12:11:50.636Z,1366.88
2018-03-02T12:12:50.644Z,1220.63
2018-03-02T12:13:50.657Z,1254.38
2018-03-02T12:14:50.663Z,1237.50
2018-03-02T12:15:50.673Z,1254.38
2018-03-02T12:16:50.725Z,1220.63
2018-03-02T12:17:50.698Z,1068.75
2018-03-02T12:18:50.717Z,945.00
2018-03-02T12:19:50.726Z,900.00
2018-03-02T12:20:50.730Z,939.38
2018-03-02T12:21:50.771Z,1063.13
2018-03-02T12:22:51.721Z,1096.88
2018-03-02T12:23:50.764Z,1057.50
2018-03-02T12:24:50.778Z,1023.75
2018-03-02T12:25:50.791Z,1153.13
2018-03-02T12:26:50.799Z,1170.00
2018-03-02T12:27:50.806Z,1018.13
2018-03-02T12:28:50.852Z,905.63
2018-03-02T12:29:50.829Z,793.13
2018-03-02T12:30:50.837Z,731.25
2018-03-02T12:31:50.849Z,759.38
2018-03-02T12:32:50.863Z,776.25
2018-03-02T12:33:50.878Z,708.75
2018-03-02T12:34:50.883Z,675.00
2018-03-02T12:35:50.891Z,675.00
2018-03-02T12:36:50.905Z,686.25
2018-03-02T12:37:50.912Z,697.50
2018-03-02T12:38:50.958Z,697.50
2018-03-02T12:39:50.931Z,675.00
2018-03-02T12:40:50.939Z,630.00
2018-03-02T12:41:50.948Z,658.13
2018-03-02T12:42:50.961Z,697.50
2018-03-02T12:43:50.968Z,714.38
2018-03-02T12:44:50.977Z,708.75
2018-03-02T12:45:50.990Z,669.38
2018-03-02T12:46:50.997Z,630.00
2018-03-02T12:47:51.058Z,646.88
2018-03-02T12:48:51.015Z,680.63
2018-03-02T12:49:51.052Z,720.00
2018-03-02T12:50:51.030Z,781.88